sensor_id;sensor_type;location;lat;lon;timestamp;temperature;humidity
47765;DHT22;33529;49.242;8.670;2023-09-08T00:00:20;19.20;99.90
47765;DHT22;33529;49.242;8.670;2023-09-08T00:02:47;19.20;99.90
47765;DHT22;33529;49.242;8.670;2023-09-08T00:05:14;19.00;99.90
47765;DHT22;33529;49.242;8.670;2023-09-08T00:07:40;18.90;99.90
47765;DHT22;33529;49.242;8.670;2023-09-08T00:10:09;18.80;99.90
47765;DHT22;33529;49.242;8.670;2023-09-08T00:12:38;18.70;99.90
47765;DHT22;33529;49.242;8.670;2023-09-08T00:15:07;18.70;99.90
47765;DHT22;33529;49.242;8.670;2023-09-08T00:17:34;18.70;99.90
47765;DHT22;33529;49.242;8.670;2023-09-08T00:20:06;18.60;99.90
47765;DHT22;33529;49.242;8.670;2023-09-08T00:22:37;18.50;99.90
47765;DHT22;33529;49.242;8.670;2023-09-08T00:25:06;18.50;99.90
47765;DHT22;33529;49.242;8.670;2023-09-08T00:27:40;18.50;99.90
47765;DHT22;33529;49.242;8.670;2023-09-08T00:30:10;18.50;99.90
47765;DHT22;33529;49.242;8.670;2023-09-08T00:32:37;18.50;99.90
47765;DHT22;33529;49.242;8.670;2023-09-08T00:35:06;18.60;99.90
47765;DHT22;33529;49.242;8.670;2023-09-08T00:37:34;18.60;99.90
47765;DHT22;33529;49.242;8.670;2023-09-08T00:40:01;18.60;99.90
47765;DHT22;33529;49.242;8.670;2023-09-08T00:42:34;18.60;99.90
47765;DHT22;33529;49.242;8.670;2023-09-08T00:45:01;18.50;99.90
47765;DHT22;33529;49.242;8.670;2023-09-08T00:47:53;18.50;99.90
47765;DHT22;33529;49.242;8.670;2023-09-08T00:50:20;18.40;99.90
47765;DHT22;33529;49.242;8.670;2023-09-08T00:52:47;18.30;99.90
47765;DHT22;33529;49.242;8.670;2023-09-08T00:55:15;18.20;99.90
47765;DHT22;33529;49.242;8.670;2023-09-08T00:57:41;18.20;99.90
47765;DHT22;33529;49.242;8.670;2023-09-08T01:00:09;18.20;99.90
47765;DHT22;33529;49.242;8.670;2023-09-08T01:02:36;18.10;99.90
47765;DHT22;33529;49.242;8.670;2023-09-08T01:05:03;18.10;99.90
47765;DHT22;33529;49.242;8.670;2023-09-08T01:07:31;18.10;99.90
47765;DHT22;33529;49.242;8.670;2023-09-08T01:09:59;18.10;99.90
47765;DHT22;33529;49.242;8.670;2023-09-08T01:12:30;18.10;99.90
47765;DHT22;33529;49.242;8.670;2023-09-08T01:14:57;18.00;99.90
47765;DHT22;33529;49.242;8.670;2023-09-08T01:17:25;18.00;99.90
47765;DHT22;33529;49.242;8.670;2023-09-08T01:19:56;18.10;99.90
47765;DHT22;33529;49.242;8.670;2023-09-08T01:27:33;18.00;99.90
47765;DHT22;33529;49.242;8.670;2023-09-08T01:30:02;18.00;99.90
47765;DHT22;33529;49.242;8.670;2023-09-08T01:32:32;18.00;99.90
47765;DHT22;33529;49.242;8.670;2023-09-08T01:34:59;17.90;99.90
47765;DHT22;33529;49.242;8.670;2023-09-08T01:37:27;17.90;99.90
47765;DHT22;33529;49.242;8.670;2023-09-08T01:39:54;17.80;99.90
47765;DHT22;33529;49.242;8.670;2023-09-08T01:42:20;17.90;99.90
47765;DHT22;33529;49.242;8.670;2023-09-08T01:44:47;17.80;99.90
47765;DHT22;33529;49.242;8.670;2023-09-08T01:47:16;17.70;99.90
47765;DHT22;33529;49.242;8.670;2023-09-08T01:49:43;17.70;99.90
47765;DHT22;33529;49.242;8.670;2023-09-08T01:52:10;17.70;99.90
47765;DHT22;33529;49.242;8.670;2023-09-08T01:54:37;17.60;99.90
47765;DHT22;33529;49.242;8.670;2023-09-08T01:57:04;17.50;99.90
47765;DHT22;33529;49.242;8.670;2023-09-08T01:59:31;17.50;99.90
47765;DHT22;33529;49.242;8.670;2023-09-08T02:01:58;17.60;99.90
47765;DHT22;33529;49.242;8.670;2023-09-08T02:04:25;17.50;99.90
47765;DHT22;33529;49.242;8.670;2023-09-08T02:06:52;17.50;99.90
47765;DHT22;33529;49.242;8.670;2023-09-08T02:09:19;17.50;99.90
47765;DHT22;33529;49.242;8.670;2023-09-08T02:11:46;17.50;99.90
47765;DHT22;33529;49.242;8.670;2023-09-08T02:14:13;17.50;99.90
47765;DHT22;33529;49.242;8.670;2023-09-08T02:16:40;17.50;99.90
47765;DHT22;33529;49.242;8.670;2023-09-08T02:19:07;17.50;99.90
47765;DHT22;33529;49.242;8.670;2023-09-08T02:21:34;17.40;99.90
47765;DHT22;33529;49.242;8.670;2023-09-08T02:24:00;17.40;99.90
47765;DHT22;33529;49.242;8.670;2023-09-08T02:26:27;17.50;99.90
47765;DHT22;33529;49.242;8.670;2023-09-08T02:28:56;17.40;99.90
47765;DHT22;33529;49.242;8.670;2023-09-08T02:31:23;17.40;99.90
47765;DHT22;33529;49.242;8.670;2023-09-08T02:33:50;17.40;99.90
47765;DHT22;33529;49.242;8.670;2023-09-08T02:36:17;17.40;99.90
47765;DHT22;33529;49.242;8.670;2023-09-08T02:38:44;17.40;99.90
47765;DHT22;33529;49.242;8.670;2023-09-08T02:41:11;17.30;99.90
47765;DHT22;33529;49.242;8.670;2023-09-08T02:43:40;17.30;99.90
47765;DHT22;33529;49.242;8.670;2023-09-08T02:46:06;17.20;99.90
47765;DHT22;33529;49.242;8.670;2023-09-08T02:48:36;17.20;99.90
47765;DHT22;33529;49.242;8.670;2023-09-08T02:51:03;17.20;99.90
47765;DHT22;33529;49.242;8.670;2023-09-08T02:53:30;17.20;99.90
47765;DHT22;33529;49.242;8.670;2023-09-08T02:56:00;17.20;99.90
47765;DHT22;33529;49.242;8.670;2023-09-08T02:58:27;17.30;99.90
47765;DHT22;33529;49.242;8.670;2023-09-08T03:00:54;17.20;99.90
47765;DHT22;33529;49.242;8.670;2023-09-08T03:03:21;17.20;99.90
47765;DHT22;33529;49.242;8.670;2023-09-08T03:05:53;17.30;99.90
47765;DHT22;33529;49.242;8.670;2023-09-08T03:08:23;17.30;99.90
47765;DHT22;33529;49.242;8.670;2023-09-08T03:10:49;17.30;99.90
47765;DHT22;33529;49.242;8.670;2023-09-08T03:13:17;17.30;99.90
47765;DHT22;33529;49.242;8.670;2023-09-08T03:15:43;17.40;99.90
47765;DHT22;33529;49.242;8.670;2023-09-08T03:18:10;17.40;99.90
47765;DHT22;33529;49.242;8.670;2023-09-08T03:20:40;17.30;99.90
47765;DHT22;33529;49.242;8.670;2023-09-08T03:23:07;17.30;99.90
47765;DHT22;33529;49.242;8.670;2023-09-08T03:25:34;17.30;99.90
47765;DHT22;33529;49.242;8.670;2023-09-08T03:28:00;17.30;99.90
47765;DHT22;33529;49.242;8.670;2023-09-08T03:30:27;17.30;99.90
47765;DHT22;33529;49.242;8.670;2023-09-08T03:32:54;17.30;99.90
47765;DHT22;33529;49.242;8.670;2023-09-08T03:35:21;17.20;99.90
47765;DHT22;33529;49.242;8.670;2023-09-08T03:37:48;17.20;99.90
47765;DHT22;33529;49.242;8.670;2023-09-08T03:40:15;17.20;99.90
47765;DHT22;33529;49.242;8.670;2023-09-08T03:42:42;17.20;99.90
47765;DHT22;33529;49.242;8.670;2023-09-08T03:45:09;17.10;99.90
47765;DHT22;33529;49.242;8.670;2023-09-08T03:47:36;17.00;99.90
47765;DHT22;33529;49.242;8.670;2023-09-08T03:50:05;17.00;99.90
47765;DHT22;33529;49.242;8.670;2023-09-08T03:52:32;17.00;99.90
47765;DHT22;33529;49.242;8.670;2023-09-08T03:54:59;17.00;99.90
47765;DHT22;33529;49.242;8.670;2023-09-08T03:57:26;17.00;99.90
47765;DHT22;33529;49.242;8.670;2023-09-08T03:59:53;17.00;99.90
47765;DHT22;33529;49.242;8.670;2023-09-08T04:02:20;16.90;99.90
47765;DHT22;33529;49.242;8.670;2023-09-08T04:04:47;16.90;99.90
47765;DHT22;33529;49.242;8.670;2023-09-08T04:07:14;16.80;99.90
47765;DHT22;33529;49.242;8.670;2023-09-08T04:09:44;16.90;99.90
47765;DHT22;33529;49.242;8.670;2023-09-08T04:12:11;16.80;99.90
47765;DHT22;33529;49.242;8.670;2023-09-08T04:14:39;16.80;99.90
47765;DHT22;33529;49.242;8.670;2023-09-08T04:17:07;16.80;99.90
47765;DHT22;33529;49.242;8.670;2023-09-08T04:19:34;16.70;99.90
47765;DHT22;33529;49.242;8.670;2023-09-08T04:22:01;16.70;99.90
47765;DHT22;33529;49.242;8.670;2023-09-08T04:24:29;16.60;99.90
47765;DHT22;33529;49.242;8.670;2023-09-08T04:26:56;16.60;99.90
47765;DHT22;33529;49.242;8.670;2023-09-08T04:29:23;16.60;99.90
47765;DHT22;33529;49.242;8.670;2023-09-08T04:31:50;16.60;99.90
47765;DHT22;33529;49.242;8.670;2023-09-08T04:34:17;16.50;99.90
47765;DHT22;33529;49.242;8.670;2023-09-08T04:36:45;16.50;99.90
47765;DHT22;33529;49.242;8.670;2023-09-08T04:39:12;16.60;99.90
47765;DHT22;33529;49.242;8.670;2023-09-08T04:41:39;16.50;99.90
47765;DHT22;33529;49.242;8.670;2023-09-08T04:44:06;16.50;99.90
47765;DHT22;33529;49.242;8.670;2023-09-08T04:46:35;16.40;99.90
47765;DHT22;33529;49.242;8.670;2023-09-08T04:49:03;16.40;99.90
47765;DHT22;33529;49.242;8.670;2023-09-08T04:51:30;16.40;99.90
47765;DHT22;33529;49.242;8.670;2023-09-08T04:53:57;16.30;99.90
47765;DHT22;33529;49.242;8.670;2023-09-08T04:56:24;16.30;99.90
47765;DHT22;33529;49.242;8.670;2023-09-08T04:58:51;16.30;99.90
47765;DHT22;33529;49.242;8.670;2023-09-08T05:01:19;16.30;99.90
47765;DHT22;33529;49.242;8.670;2023-09-08T05:03:46;16.30;99.90
47765;DHT22;33529;49.242;8.670;2023-09-08T05:06:13;16.30;99.90
47765;DHT22;33529;49.242;8.670;2023-09-08T05:08:40;16.30;99.90
47765;DHT22;33529;49.242;8.670;2023-09-08T05:11:07;16.30;99.90
47765;DHT22;33529;49.242;8.670;2023-09-08T05:13:36;16.30;99.90
47765;DHT22;33529;49.242;8.670;2023-09-08T05:16:03;16.30;99.90
47765;DHT22;33529;49.242;8.670;2023-09-08T05:18:43;16.30;99.90
47765;DHT22;33529;49.242;8.670;2023-09-08T05:21:10;16.40;99.90
47765;DHT22;33529;49.242;8.670;2023-09-08T05:23:40;16.30;99.90
47765;DHT22;33529;49.242;8.670;2023-09-08T05:26:09;16.40;99.90
47765;DHT22;33529;49.242;8.670;2023-09-08T05:28:36;16.50;99.90
47765;DHT22;33529;49.242;8.670;2023-09-08T05:31:06;16.40;99.90
47765;DHT22;33529;49.242;8.670;2023-09-08T05:33:33;16.40;99.90
47765;DHT22;33529;49.242;8.670;2023-09-08T05:36:01;16.50;99.90
47765;DHT22;33529;49.242;8.670;2023-09-08T05:38:29;16.50;99.90
47765;DHT22;33529;49.242;8.670;2023-09-08T05:40:56;16.50;99.90
47765;DHT22;33529;49.242;8.670;2023-09-08T05:43:25;16.60;99.90
47765;DHT22;33529;49.242;8.670;2023-09-08T05:45:53;16.70;99.90
47765;DHT22;33529;49.242;8.670;2023-09-08T05:48:20;16.70;99.90
47765;DHT22;33529;49.242;8.670;2023-09-08T05:50:47;16.70;99.90
47765;DHT22;33529;49.242;8.670;2023-09-08T05:53:14;16.80;99.90
47765;DHT22;33529;49.242;8.670;2023-09-08T05:55:41;16.90;99.90
47765;DHT22;33529;49.242;8.670;2023-09-08T05:58:08;16.90;99.90
47765;DHT22;33529;49.242;8.670;2023-09-08T06:00:35;17.00;99.90
47765;DHT22;33529;49.242;8.670;2023-09-08T06:03:02;17.10;99.90
47765;DHT22;33529;49.242;8.670;2023-09-08T06:05:30;17.20;99.90
47765;DHT22;33529;49.242;8.670;2023-09-08T06:07:57;17.30;99.90
47765;DHT22;33529;49.242;8.670;2023-09-08T06:10:38;17.50;99.90
47765;DHT22;33529;49.242;8.670;2023-09-08T06:13:06;17.60;99.90
47765;DHT22;33529;49.242;8.670;2023-09-08T06:15:36;17.70;99.90
47765;DHT22;33529;49.242;8.670;2023-09-08T06:18:04;17.80;99.90
47765;DHT22;33529;49.242;8.670;2023-09-08T06:20:31;18.00;99.90
47765;DHT22;33529;49.242;8.670;2023-09-08T06:22:58;18.10;99.90
47765;DHT22;33529;49.242;8.670;2023-09-08T06:25:26;18.20;99.90
47765;DHT22;33529;49.242;8.670;2023-09-08T06:27:53;18.30;99.90
47765;DHT22;33529;49.242;8.670;2023-09-08T06:30:20;18.40;99.90
47765;DHT22;33529;49.242;8.670;2023-09-08T06:32:48;18.50;99.90
47765;DHT22;33529;49.242;8.670;2023-09-08T06:35:15;18.60;99.90
47765;DHT22;33529;49.242;8.670;2023-09-08T06:37:43;18.70;99.90
47765;DHT22;33529;49.242;8.670;2023-09-08T06:40:10;18.80;99.90
47765;DHT22;33529;49.242;8.670;2023-09-08T06:42:37;18.90;99.90
47765;DHT22;33529;49.242;8.670;2023-09-08T06:45:13;19.00;99.90
47765;DHT22;33529;49.242;8.670;2023-09-08T06:47:43;19.20;99.90
47765;DHT22;33529;49.242;8.670;2023-09-08T06:50:10;19.40;99.90
47765;DHT22;33529;49.242;8.670;2023-09-08T06:52:38;19.50;99.90
47765;DHT22;33529;49.242;8.670;2023-09-08T06:55:05;19.60;99.90
47765;DHT22;33529;49.242;8.670;2023-09-08T06:57:32;19.60;99.90
47765;DHT22;33529;49.242;8.670;2023-09-08T06:59:59;19.70;99.90
47765;DHT22;33529;49.242;8.670;2023-09-08T07:02:25;19.70;99.90
47765;DHT22;33529;49.242;8.670;2023-09-08T07:04:53;19.80;99.90
47765;DHT22;33529;49.242;8.670;2023-09-08T07:07:20;19.90;99.90
47765;DHT22;33529;49.242;8.670;2023-09-08T07:09:48;20.00;99.90
47765;DHT22;33529;49.242;8.670;2023-09-08T07:12:15;20.20;99.90
47765;DHT22;33529;49.242;8.670;2023-09-08T07:14:42;20.30;99.90
47765;DHT22;33529;49.242;8.670;2023-09-08T07:17:09;20.40;99.90
47765;DHT22;33529;49.242;8.670;2023-09-08T07:19:36;20.40;99.90
47765;DHT22;33529;49.242;8.670;2023-09-08T07:22:03;20.50;99.90
47765;DHT22;33529;49.242;8.670;2023-09-08T07:24:30;20.60;99.90
47765;DHT22;33529;49.242;8.670;2023-09-08T07:26:57;20.70;99.90
47765;DHT22;33529;49.242;8.670;2023-09-08T07:29:24;20.80;99.90
47765;DHT22;33529;49.242;8.670;2023-09-08T07:31:51;20.90;99.90
47765;DHT22;33529;49.242;8.670;2023-09-08T07:34:18;21.00;99.90
47765;DHT22;33529;49.242;8.670;2023-09-08T07:36:45;21.10;99.90
47765;DHT22;33529;49.242;8.670;2023-09-08T07:39:11;21.20;99.90
47765;DHT22;33529;49.242;8.670;2023-09-08T07:41:38;21.30;99.90
47765;DHT22;33529;49.242;8.670;2023-09-08T07:44:08;21.40;99.90
47765;DHT22;33529;49.242;8.670;2023-09-08T07:46:35;21.50;99.90
47765;DHT22;33529;49.242;8.670;2023-09-08T07:49:02;21.50;99.90
47765;DHT22;33529;49.242;8.670;2023-09-08T07:51:29;21.70;99.90
47765;DHT22;33529;49.242;8.670;2023-09-08T07:53:57;21.90;99.90
47765;DHT22;33529;49.242;8.670;2023-09-08T07:56:24;22.10;99.90
47765;DHT22;33529;49.242;8.670;2023-09-08T07:58:51;22.10;99.90
47765;DHT22;33529;49.242;8.670;2023-09-08T08:01:18;22.30;99.90
47765;DHT22;33529;49.242;8.670;2023-09-08T08:03:45;22.40;99.90
47765;DHT22;33529;49.242;8.670;2023-09-08T08:06:11;22.40;99.90
47765;DHT22;33529;49.242;8.670;2023-09-08T08:08:38;22.60;99.90
47765;DHT22;33529;49.242;8.670;2023-09-08T08:11:11;22.60;99.90
47765;DHT22;33529;49.242;8.670;2023-09-08T08:13:38;22.70;99.90
47765;DHT22;33529;49.242;8.670;2023-09-08T08:16:05;22.80;99.90
47765;DHT22;33529;49.242;8.670;2023-09-08T08:18:32;22.90;99.90
47765;DHT22;33529;49.242;8.670;2023-09-08T08:21:02;23.00;99.90
47765;DHT22;33529;49.242;8.670;2023-09-08T08:23:30;23.00;99.90
47765;DHT22;33529;49.242;8.670;2023-09-08T08:25:58;23.10;99.90
47765;DHT22;33529;49.242;8.670;2023-09-08T08:28:25;23.10;99.90
47765;DHT22;33529;49.242;8.670;2023-09-08T08:30:52;23.20;99.90
47765;DHT22;33529;49.242;8.670;2023-09-08T08:33:20;23.20;99.90
47765;DHT22;33529;49.242;8.670;2023-09-08T08:35:51;23.20;99.90
47765;DHT22;33529;49.242;8.670;2023-09-08T08:38:19;23.30;99.90
47765;DHT22;33529;49.242;8.670;2023-09-08T08:40:46;23.30;99.90
47765;DHT22;33529;49.242;8.670;2023-09-08T08:43:13;23.40;99.90
47765;DHT22;33529;49.242;8.670;2023-09-08T08:45:42;23.50;99.90
47765;DHT22;33529;49.242;8.670;2023-09-08T08:48:10;23.50;99.90
47765;DHT22;33529;49.242;8.670;2023-09-08T08:50:38;23.60;99.90
47765;DHT22;33529;49.242;8.670;2023-09-08T08:53:08;23.60;99.90
47765;DHT22;33529;49.242;8.670;2023-09-08T08:55:35;23.70;99.90
47765;DHT22;33529;49.242;8.670;2023-09-08T08:58:05;23.70;99.90
47765;DHT22;33529;49.242;8.670;2023-09-08T09:00:36;23.90;99.90
47765;DHT22;33529;49.242;8.670;2023-09-08T09:03:05;24.00;99.90
47765;DHT22;33529;49.242;8.670;2023-09-08T09:05:41;24.00;99.90
47765;DHT22;33529;49.242;8.670;2023-09-08T09:08:16;24.00;99.90
47765;DHT22;33529;49.242;8.670;2023-09-08T09:10:43;24.10;99.90
47765;DHT22;33529;49.242;8.670;2023-09-08T09:13:09;24.10;99.90
47765;DHT22;33529;49.242;8.670;2023-09-08T09:15:36;24.30;99.90
47765;DHT22;33529;49.242;8.670;2023-09-08T09:18:05;24.40;99.90
47765;DHT22;33529;49.242;8.670;2023-09-08T09:20:33;24.40;99.90
47765;DHT22;33529;49.242;8.670;2023-09-08T09:23:00;24.50;99.90
47765;DHT22;33529;49.242;8.670;2023-09-08T09:25:28;24.40;99.90
47765;DHT22;33529;49.242;8.670;2023-09-08T09:28:01;24.50;99.90
47765;DHT22;33529;49.242;8.670;2023-09-08T09:30:49;24.40;99.90
47765;DHT22;33529;49.242;8.670;2023-09-08T09:33:16;24.60;99.90
47765;DHT22;33529;49.242;8.670;2023-09-08T09:35:52;24.70;99.90
47765;DHT22;33529;49.242;8.670;2023-09-08T09:38:20;24.70;99.90
47765;DHT22;33529;49.242;8.670;2023-09-08T09:40:48;24.80;99.90
47765;DHT22;33529;49.242;8.670;2023-09-08T09:43:16;24.80;99.90
47765;DHT22;33529;49.242;8.670;2023-09-08T09:45:44;24.90;99.90
47765;DHT22;33529;49.242;8.670;2023-09-08T09:48:11;25.00;99.90
47765;DHT22;33529;49.242;8.670;2023-09-08T09:50:41;25.00;99.90
47765;DHT22;33529;49.242;8.670;2023-09-08T09:53:16;25.20;99.90
47765;DHT22;33529;49.242;8.670;2023-09-08T09:55:45;25.30;99.90
47765;DHT22;33529;49.242;8.670;2023-09-08T09:58:12;25.30;99.90
47765;DHT22;33529;49.242;8.670;2023-09-08T10:00:40;25.20;99.90
47765;DHT22;33529;49.242;8.670;2023-09-08T10:03:08;25.20;99.90
47765;DHT22;33529;49.242;8.670;2023-09-08T10:05:37;25.30;99.90
47765;DHT22;33529;49.242;8.670;2023-09-08T10:08:04;25.30;99.90
47765;DHT22;33529;49.242;8.670;2023-09-08T10:10:32;25.20;99.90
47765;DHT22;33529;49.242;8.670;2023-09-08T10:13:06;25.30;99.90
47765;DHT22;33529;49.242;8.670;2023-09-08T10:15:34;25.30;99.90
47765;DHT22;33529;49.242;8.670;2023-09-08T10:18:04;25.50;99.90
47765;DHT22;33529;49.242;8.670;2023-09-08T10:20:33;25.50;99.90
47765;DHT22;33529;49.242;8.670;2023-09-08T10:25:59;25.60;99.90
47765;DHT22;33529;49.242;8.670;2023-09-08T10:28:32;25.70;99.90
47765;DHT22;33529;49.242;8.670;2023-09-08T10:31:01;25.90;99.90
47765;DHT22;33529;49.242;8.670;2023-09-08T10:33:30;25.90;99.90
47765;DHT22;33529;49.242;8.670;2023-09-08T10:35:59;26.00;99.90
47765;DHT22;33529;49.242;8.670;2023-09-08T10:38:33;26.10;99.90
47765;DHT22;33529;49.242;8.670;2023-09-08T10:43:54;26.20;98.90
47765;DHT22;33529;49.242;8.670;2023-09-08T10:46:23;26.10;99.70
47765;DHT22;33529;49.242;8.670;2023-09-08T10:48:50;26.00;99.40
47765;DHT22;33529;49.242;8.670;2023-09-08T10:51:17;26.10;99.70
47765;DHT22;33529;49.242;8.670;2023-09-08T10:53:47;26.30;99.90
47765;DHT22;33529;49.242;8.670;2023-09-08T10:56:16;26.30;99.90
47765;DHT22;33529;49.242;8.670;2023-09-08T10:58:49;26.40;99.50
47765;DHT22;33529;49.242;8.670;2023-09-08T11:01:31;26.30;99.90
47765;DHT22;33529;49.242;8.670;2023-09-08T11:03:58;26.40;99.90
47765;DHT22;33529;49.242;8.670;2023-09-08T11:06:27;26.40;99.90
47765;DHT22;33529;49.242;8.670;2023-09-08T11:09:06;26.50;99.90
47765;DHT22;33529;49.242;8.670;2023-09-08T11:11:33;26.50;99.90
47765;DHT22;33529;49.242;8.670;2023-09-08T11:14:00;26.50;99.20
47765;DHT22;33529;49.242;8.670;2023-09-08T11:16:28;26.60;99.90
47765;DHT22;33529;49.242;8.670;2023-09-08T11:18:58;26.60;99.40
47765;DHT22;33529;49.242;8.670;2023-09-08T11:21:25;26.60;99.40
47765;DHT22;33529;49.242;8.670;2023-09-08T11:23:52;26.60;97.60
47765;DHT22;33529;49.242;8.670;2023-09-08T11:26:19;26.70;98.30
47765;DHT22;33529;49.242;8.670;2023-09-08T11:28:47;26.70;99.60
47765;DHT22;33529;49.242;8.670;2023-09-08T11:31:16;26.80;98.70
47765;DHT22;33529;49.242;8.670;2023-09-08T11:33:43;26.90;97.70
47765;DHT22;33529;49.242;8.670;2023-09-08T11:36:14;26.80;98.60
47765;DHT22;33529;49.242;8.670;2023-09-08T11:38:45;26.80;98.10
47765;DHT22;33529;49.242;8.670;2023-09-08T11:41:12;26.80;98.10
47765;DHT22;33529;49.242;8.670;2023-09-08T11:43:39;26.80;97.40
47765;DHT22;33529;49.242;8.670;2023-09-08T11:46:06;26.90;98.30
47765;DHT22;33529;49.242;8.670;2023-09-08T11:48:33;27.00;99.00
47765;DHT22;33529;49.242;8.670;2023-09-08T11:51:02;26.90;98.40
47765;DHT22;33529;49.242;8.670;2023-09-08T11:53:29;26.90;99.30
47765;DHT22;33529;49.242;8.670;2023-09-08T11:55:56;27.00;99.00
47765;DHT22;33529;49.242;8.670;2023-09-08T11:58:24;27.00;98.40
47765;DHT22;33529;49.242;8.670;2023-09-08T12:00:51;27.10;97.60
47765;DHT22;33529;49.242;8.670;2023-09-08T12:03:18;27.00;98.10
47765;DHT22;33529;49.242;8.670;2023-09-08T12:05:51;27.10;99.10
47765;DHT22;33529;49.242;8.670;2023-09-08T12:08:18;27.20;99.00
47765;DHT22;33529;49.242;8.670;2023-09-08T12:10:45;27.20;98.00
47765;DHT22;33529;49.242;8.670;2023-09-08T12:13:12;27.30;98.00
47765;DHT22;33529;49.242;8.670;2023-09-08T12:15:41;27.50;97.20
47765;DHT22;33529;49.242;8.670;2023-09-08T12:18:10;27.50;96.80
47765;DHT22;33529;49.242;8.670;2023-09-08T12:20:39;27.60;96.40
47765;DHT22;33529;49.242;8.670;2023-09-08T12:23:16;27.50;96.60
47765;DHT22;33529;49.242;8.670;2023-09-08T12:26:01;27.50;96.50
47765;DHT22;33529;49.242;8.670;2023-09-08T12:28:30;27.60;96.80
47765;DHT22;33529;49.242;8.670;2023-09-08T12:30:58;27.80;97.00
47765;DHT22;33529;49.242;8.670;2023-09-08T12:33:26;27.70;96.50
47765;DHT22;33529;49.242;8.670;2023-09-08T12:35:53;27.70;96.60
47765;DHT22;33529;49.242;8.670;2023-09-08T12:38:20;27.60;96.30
47765;DHT22;33529;49.242;8.670;2023-09-08T12:40:47;27.70;95.70
47765;DHT22;33529;49.242;8.670;2023-09-08T12:43:14;27.70;96.10
47765;DHT22;33529;49.242;8.670;2023-09-08T12:45:54;27.60;95.90
47765;DHT22;33529;49.242;8.670;2023-09-08T12:48:23;27.70;95.70
47765;DHT22;33529;49.242;8.670;2023-09-08T12:50:50;27.70;96.30
47765;DHT22;33529;49.242;8.670;2023-09-08T12:53:17;27.70;95.90
47765;DHT22;33529;49.242;8.670;2023-09-08T12:55:45;27.70;95.80
47765;DHT22;33529;49.242;8.670;2023-09-08T12:58:12;27.60;96.40
47765;DHT22;33529;49.242;8.670;2023-09-08T13:00:39;27.70;96.40
47765;DHT22;33529;49.242;8.670;2023-09-08T13:03:06;27.80;95.60
47765;DHT22;33529;49.242;8.670;2023-09-08T13:05:33;28.00;95.40
47765;DHT22;33529;49.242;8.670;2023-09-08T13:08:00;28.10;95.30
47765;DHT22;33529;49.242;8.670;2023-09-08T13:10:26;28.20;94.30
47765;DHT22;33529;49.242;8.670;2023-09-08T13:12:53;28.20;93.80
47765;DHT22;33529;49.242;8.670;2023-09-08T13:15:22;28.20;94.30
47765;DHT22;33529;49.242;8.670;2023-09-08T13:17:50;28.40;95.10
47765;DHT22;33529;49.242;8.670;2023-09-08T13:20:16;28.40;94.30
47765;DHT22;33529;49.242;8.670;2023-09-08T13:22:43;28.50;94.70
47765;DHT22;33529;49.242;8.670;2023-09-08T13:25:11;28.60;94.20
47765;DHT22;33529;49.242;8.670;2023-09-08T13:27:40;28.60;93.10
47765;DHT22;33529;49.242;8.670;2023-09-08T13:30:14;28.50;94.10
47765;DHT22;33529;49.242;8.670;2023-09-08T13:32:44;28.40;94.20
47765;DHT22;33529;49.242;8.670;2023-09-08T13:35:12;28.40;94.50
47765;DHT22;33529;49.242;8.670;2023-09-08T13:37:39;28.40;94.90
47765;DHT22;33529;49.242;8.670;2023-09-08T13:40:09;28.40;94.70
47765;DHT22;33529;49.242;8.670;2023-09-08T13:42:36;28.30;94.20
47765;DHT22;33529;49.242;8.670;2023-09-08T13:45:04;28.30;94.20
47765;DHT22;33529;49.242;8.670;2023-09-08T13:47:31;28.30;94.30
47765;DHT22;33529;49.242;8.670;2023-09-08T13:49:59;28.40;94.40
47765;DHT22;33529;49.242;8.670;2023-09-08T13:52:28;28.60;93.90
47765;DHT22;33529;49.242;8.670;2023-09-08T13:54:58;28.60;94.10
47765;DHT22;33529;49.242;8.670;2023-09-08T13:57:29;28.60;93.50
47765;DHT22;33529;49.242;8.670;2023-09-08T13:59:56;28.50;93.50
47765;DHT22;33529;49.242;8.670;2023-09-08T14:02:24;28.40;93.50
47765;DHT22;33529;49.242;8.670;2023-09-08T14:04:55;28.50;93.20
47765;DHT22;33529;49.242;8.670;2023-09-08T14:07:29;28.50;93.70
47765;DHT22;33529;49.242;8.670;2023-09-08T14:09:59;28.40;92.70
47765;DHT22;33529;49.242;8.670;2023-09-08T14:12:45;28.40;92.80
47765;DHT22;33529;49.242;8.670;2023-09-08T14:15:12;28.40;92.70
47765;DHT22;33529;49.242;8.670;2023-09-08T14:17:42;28.40;92.60
47765;DHT22;33529;49.242;8.670;2023-09-08T14:24:01;28.30;92.70
47765;DHT22;33529;49.242;8.670;2023-09-08T14:31:37;28.30;92.30
47765;DHT22;33529;49.242;8.670;2023-09-08T14:38:52;28.30;91.90
47765;DHT22;33529;49.242;8.670;2023-09-08T14:53:52;28.00;93.10
47765;DHT22;33529;49.242;8.670;2023-09-08T14:56:19;28.20;92.00
47765;DHT22;33529;49.242;8.670;2023-09-08T14:58:46;28.30;92.20
47765;DHT22;33529;49.242;8.670;2023-09-08T15:01:13;28.40;92.30
47765;DHT22;33529;49.242;8.670;2023-09-08T15:03:40;28.50;92.60
47765;DHT22;33529;49.242;8.670;2023-09-08T15:06:08;28.50;92.10
47765;DHT22;33529;49.242;8.670;2023-09-08T15:08:36;28.50;91.80
47765;DHT22;33529;49.242;8.670;2023-09-08T15:11:02;28.50;92.60
47765;DHT22;33529;49.242;8.670;2023-09-08T15:13:30;28.40;92.30
47765;DHT22;33529;49.242;8.670;2023-09-08T15:15:58;28.50;92.60
47765;DHT22;33529;49.242;8.670;2023-09-08T15:18:26;28.60;92.50
47765;DHT22;33529;49.242;8.670;2023-09-08T15:20:54;28.60;92.60
47765;DHT22;33529;49.242;8.670;2023-09-08T15:23:21;28.50;92.60
47765;DHT22;33529;49.242;8.670;2023-09-08T15:25:56;28.50;92.80
47765;DHT22;33529;49.242;8.670;2023-09-08T15:28:24;28.50;92.50
47765;DHT22;33529;49.242;8.670;2023-09-08T15:30:53;28.40;92.50
47765;DHT22;33529;49.242;8.670;2023-09-08T15:33:21;28.40;91.70
47765;DHT22;33529;49.242;8.670;2023-09-08T15:35:51;28.40;92.50
47765;DHT22;33529;49.242;8.670;2023-09-08T15:38:18;28.40;92.30
47765;DHT22;33529;49.242;8.670;2023-09-08T15:43:41;28.40;92.50
47765;DHT22;33529;49.242;8.670;2023-09-08T15:46:08;28.40;91.90
47765;DHT22;33529;49.242;8.670;2023-09-08T15:48:35;28.40;92.20
47765;DHT22;33529;49.242;8.670;2023-09-08T15:51:03;28.40;91.90
47765;DHT22;33529;49.242;8.670;2023-09-08T15:53:33;28.50;92.40
47765;DHT22;33529;49.242;8.670;2023-09-08T15:56:00;28.50;92.30
47765;DHT22;33529;49.242;8.670;2023-09-08T15:58:27;28.60;91.90
47765;DHT22;33529;49.242;8.670;2023-09-08T16:00:54;28.90;91.80
47765;DHT22;33529;49.242;8.670;2023-09-08T16:03:21;29.00;91.40
47765;DHT22;33529;49.242;8.670;2023-09-08T16:05:48;29.10;91.40
47765;DHT22;33529;49.242;8.670;2023-09-08T16:08:15;29.00;91.50
47765;DHT22;33529;49.242;8.670;2023-09-08T16:10:41;28.80;91.80
47765;DHT22;33529;49.242;8.670;2023-09-08T16:13:08;28.70;91.30
47765;DHT22;33529;49.242;8.670;2023-09-08T16:15:35;28.50;92.00